sensor_id;sensor_type;location;lat;lon;timestamp;P1;durP1;ratioP1;P2;durP2;ratioP2
75456;SDS011;64036;48.266;14.192;2023-03-01T00:01:40;10.60;;;6.30;;
75456;SDS011;64036;48.266;14.192;2023-03-01T00:04:05;12.30;;;7.10;;
75456;SDS011;64036;48.266;14.192;2023-03-01T00:06:42;12.30;;;6.50;;
75456;SDS011;64036;48.266;14.192;2023-03-01T00:09:17;11.80;;;7.00;;
75456;SDS011;64036;48.266;14.192;2023-03-01T00:14:30;14.80;;;6.40;;
75456;SDS011;64036;48.266;14.192;2023-03-01T00:17:16;11.90;;;6.30;;
75456;SDS011;64036;48.266;14.192;2023-03-01T00:19:42;14.20;;;7.30;;
75456;SDS011;64036;48.266;14.192;2023-03-01T00:22:11;12.80;;;6.20;;
75456;SDS011;64036;48.266;14.192;2023-03-01T00:24:42;12.90;;;7.40;;
75456;SDS011;64036;48.266;14.192;2023-03-01T00:27:17;14.30;;;7.80;;
75456;SDS011;64036;48.266;14.192;2023-03-01T00:29:46;11.90;;;6.90;;
75456;SDS011;64036;48.266;14.192;2023-03-01T00:32:26;14.20;;;7.90;;
75456;SDS011;64036;48.266;14.192;2023-03-01T00:34:54;15.40;;;8.40;;
75456;SDS011;64036;48.266;14.192;2023-03-01T00:37:28;16.00;;;8.00;;
75456;SDS011;64036;48.266;14.192;2023-03-01T00:40:00;16.00;;;8.80;;
75456;SDS011;64036;48.266;14.192;2023-03-01T00:42:25;14.30;;;7.20;;
75456;SDS011;64036;48.266;14.192;2023-03-01T00:44:51;15.60;;;7.70;;
75456;SDS011;64036;48.266;14.192;2023-03-01T00:47:17;10.70;;;6.30;;
75456;SDS011;64036;48.266;14.192;2023-03-01T00:49:46;14.80;;;8.20;;
75456;SDS011;64036;48.266;14.192;2023-03-01T00:52:12;14.50;;;7.40;;
75456;SDS011;64036;48.266;14.192;2023-03-01T00:54:37;14.20;;;8.10;;
75456;SDS011;64036;48.266;14.192;2023-03-01T00:57:03;14.40;;;7.90;;
75456;SDS011;64036;48.266;14.192;2023-03-01T00:59:42;12.80;;;6.50;;
75456;SDS011;64036;48.266;14.192;2023-03-01T01:02:07;12.00;;;6.40;;
75456;SDS011;64036;48.266;14.192;2023-03-01T01:04:33;14.90;;;7.90;;
75456;SDS011;64036;48.266;14.192;2023-03-01T01:07:13;16.80;;;8.40;;
75456;SDS011;64036;48.266;14.192;2023-03-01T01:09:40;12.20;;;6.70;;
75456;SDS011;64036;48.266;14.192;2023-03-01T01:12:11;12.20;;;6.90;;
75456;SDS011;64036;48.266;14.192;2023-03-01T01:14:37;20.30;;;10.30;;
75456;SDS011;64036;48.266;14.192;2023-03-01T01:17:15;10.50;;;6.40;;
75456;SDS011;64036;48.266;14.192;2023-03-01T01:19:41;14.50;;;8.40;;
75456;SDS011;64036;48.266;14.192;2023-03-01T01:22:07;15.60;;;8.30;;
75456;SDS011;64036;48.266;14.192;2023-03-01T01:24:36;15.40;;;6.60;;
75456;SDS011;64036;48.266;14.192;2023-03-01T01:27:11;10.50;;;6.40;;
75456;SDS011;64036;48.266;14.192;2023-03-01T01:29:39;13.30;;;7.50;;
75456;SDS011;64036;48.266;14.192;2023-03-01T01:32:05;18.60;;;8.70;;
75456;SDS011;64036;48.266;14.192;2023-03-01T01:34:34;17.70;;;8.50;;
75456;SDS011;64036;48.266;14.192;2023-03-01T01:37:17;15.80;;;8.00;;
75456;SDS011;64036;48.266;14.192;2023-03-01T01:39:51;14.70;;;6.50;;
75456;SDS011;64036;48.266;14.192;2023-03-01T01:42:18;18.60;;;9.10;;
75456;SDS011;64036;48.266;14.192;2023-03-01T01:44:46;15.00;;;7.80;;
75456;SDS011;64036;48.266;14.192;2023-03-01T01:47:24;17.30;;;9.70;;
75456;SDS011;64036;48.266;14.192;2023-03-01T01:49:55;12.50;;;5.90;;
75456;SDS011;64036;48.266;14.192;2023-03-01T01:52:31;15.90;;;8.60;;
75456;SDS011;64036;48.266;14.192;2023-03-01T01:55:09;15.60;;;7.70;;
75456;SDS011;64036;48.266;14.192;2023-03-01T01:57:56;15.20;;;8.90;;
75456;SDS011;64036;48.266;14.192;2023-03-01T02:00:39;17.80;;;8.70;;
75456;SDS011;64036;48.266;14.192;2023-03-01T02:07:30;13.00;;;6.90;;
75456;SDS011;64036;48.266;14.192;2023-03-01T02:10:00;14.70;;;7.90;;
75456;SDS011;64036;48.266;14.192;2023-03-01T02:12:29;17.80;;;9.10;;
75456;SDS011;64036;48.266;14.192;2023-03-01T02:15:07;17.00;;;7.20;;
75456;SDS011;64036;48.266;14.192;2023-03-01T02:17:49;18.70;;;10.00;;
75456;SDS011;64036;48.266;14.192;2023-03-01T02:23:23;16.60;;;9.00;;
75456;SDS011;64036;48.266;14.192;2023-03-01T02:26:08;20.00;;;9.10;;
75456;SDS011;64036;48.266;14.192;2023-03-01T02:28:44;19.50;;;9.70;;
75456;SDS011;64036;48.266;14.192;2023-03-01T02:31:22;14.90;;;7.50;;
75456;SDS011;64036;48.266;14.192;2023-03-01T02:34:16;19.40;;;10.30;;
75456;SDS011;64036;48.266;14.192;2023-03-01T02:37:11;14.90;;;8.30;;
75456;SDS011;64036;48.266;14.192;2023-03-01T02:39:45;15.50;;;8.40;;
75456;SDS011;64036;48.266;14.192;2023-03-01T02:42:20;17.70;;;9.30;;
75456;SDS011;64036;48.266;14.192;2023-03-01T02:44:51;17.40;;;10.00;;
75456;SDS011;64036;48.266;14.192;2023-03-01T02:47:25;17.00;;;8.60;;
75456;SDS011;64036;48.266;14.192;2023-03-01T02:49:54;20.00;;;9.40;;
75456;SDS011;64036;48.266;14.192;2023-03-01T02:55:23;16.30;;;8.50;;
75456;SDS011;64036;48.266;14.192;2023-03-01T02:57:53;19.00;;;9.60;;
75456;SDS011;64036;48.266;14.192;2023-03-01T03:00:40;15.00;;;8.20;;
75456;SDS011;64036;48.266;14.192;2023-03-01T03:03:17;13.10;;;7.10;;
75456;SDS011;64036;48.266;14.192;2023-03-01T03:05:44;19.30;;;9.90;;
75456;SDS011;64036;48.266;14.192;2023-03-01T03:08:21;19.30;;;9.60;;
75456;SDS011;64036;48.266;14.192;2023-03-01T03:10:49;17.80;;;9.20;;
75456;SDS011;64036;48.266;14.192;2023-03-01T03:13:14;16.20;;;8.30;;
75456;SDS011;64036;48.266;14.192;2023-03-01T03:15:43;14.10;;;7.70;;
75456;SDS011;64036;48.266;14.192;2023-03-01T03:18:14;15.10;;;8.10;;
75456;SDS011;64036;48.266;14.192;2023-03-01T03:20:48;18.50;;;9.90;;
75456;SDS011;64036;48.266;14.192;2023-03-01T03:23:21;16.60;;;8.50;;
75456;SDS011;64036;48.266;14.192;2023-03-01T03:25:49;22.00;;;9.80;;
75456;SDS011;64036;48.266;14.192;2023-03-01T03:28:21;16.70;;;9.20;;
75456;SDS011;64036;48.266;14.192;2023-03-01T03:30:54;15.80;;;6.70;;
75456;SDS011;64036;48.266;14.192;2023-03-01T03:33:25;17.90;;;9.30;;
75456;SDS011;64036;48.266;14.192;2023-03-01T03:35:51;12.60;;;6.30;;
75456;SDS011;64036;48.266;14.192;2023-03-01T03:38:18;16.20;;;8.80;;
75456;SDS011;64036;48.266;14.192;2023-03-01T03:40:59;17.90;;;10.30;;
75456;SDS011;64036;48.266;14.192;2023-03-01T03:43:39;18.50;;;8.90;;
75456;SDS011;64036;48.266;14.192;2023-03-01T03:46:10;20.10;;;9.80;;
75456;SDS011;64036;48.266;14.192;2023-03-01T03:48:42;15.10;;;8.50;;
75456;SDS011;64036;48.266;14.192;2023-03-01T03:51:34;18.90;;;9.00;;
75456;SDS011;64036;48.266;14.192;2023-03-01T03:53:59;14.30;;;7.10;;
75456;SDS011;64036;48.266;14.192;2023-03-01T03:56:28;17.70;;;9.20;;
75456;SDS011;64036;48.266;14.192;2023-03-01T03:58:59;20.60;;;9.60;;
75456;SDS011;64036;48.266;14.192;2023-03-01T04:01:25;17.20;;;8.90;;
75456;SDS011;64036;48.266;14.192;2023-03-01T04:03:56;17.60;;;8.80;;
75456;SDS011;64036;48.266;14.192;2023-03-01T04:06:31;18.30;;;9.20;;
75456;SDS011;64036;48.266;14.192;2023-03-01T04:09:00;13.30;;;6.80;;
75456;SDS011;64036;48.266;14.192;2023-03-01T04:11:29;16.10;;;8.70;;
75456;SDS011;64036;48.266;14.192;2023-03-01T04:13:57;16.10;;;9.00;;
75456;SDS011;64036;48.266;14.192;2023-03-01T04:16:24;19.40;;;9.70;;
75456;SDS011;64036;48.266;14.192;2023-03-01T04:18:50;19.00;;;10.40;;
75456;SDS011;64036;48.266;14.192;2023-03-01T04:21:22;16.20;;;8.70;;
75456;SDS011;64036;48.266;14.192;2023-03-01T04:23:51;18.00;;;8.90;;
75456;SDS011;64036;48.266;14.192;2023-03-01T04:26:20;10.60;;;6.30;;
75456;SDS011;64036;48.266;14.192;2023-03-01T04:28:46;15.20;;;8.20;;
75456;SDS011;64036;48.266;14.192;2023-03-01T04:31:17;18.30;;;10.40;;
75456;SDS011;64036;48.266;14.192;2023-03-01T04:33:51;18.80;;;9.70;;
75456;SDS011;64036;48.266;14.192;2023-03-01T04:39:01;16.80;;;8.20;;
75456;SDS011;64036;48.266;14.192;2023-03-01T04:41:39;19.00;;;9.00;;
75456;SDS011;64036;48.266;14.192;2023-03-01T04:44:08;15.20;;;8.40;;
75456;SDS011;64036;48.266;14.192;2023-03-01T04:46:44;17.30;;;9.20;;
75456;SDS011;64036;48.266;14.192;2023-03-01T04:49:10;16.10;;;7.90;;
75456;SDS011;64036;48.266;14.192;2023-03-01T04:51:41;19.40;;;9.80;;
75456;SDS011;64036;48.266;14.192;2023-03-01T04:54:08;17.20;;;9.10;;
75456;SDS011;64036;48.266;14.192;2023-03-01T04:56:36;19.80;;;10.20;;
75456;SDS011;64036;48.266;14.192;2023-03-01T04:59:02;17.70;;;8.40;;
75456;SDS011;64036;48.266;14.192;2023-03-01T05:01:30;14.70;;;7.50;;
75456;SDS011;64036;48.266;14.192;2023-03-01T05:03:56;15.50;;;7.90;;
75456;SDS011;64036;48.266;14.192;2023-03-01T05:06:35;18.30;;;9.70;;
75456;SDS011;64036;48.266;14.192;2023-03-01T05:09:01;17.30;;;9.30;;
75456;SDS011;64036;48.266;14.192;2023-03-01T05:11:30;17.10;;;9.10;;
75456;SDS011;64036;48.266;14.192;2023-03-01T05:13:59;14.70;;;7.90;;
75456;SDS011;64036;48.266;14.192;2023-03-01T05:16:28;17.80;;;9.20;;
75456;SDS011;64036;48.266;14.192;2023-03-01T05:18:55;15.90;;;7.80;;
75456;SDS011;64036;48.266;14.192;2023-03-01T05:21:35;11.40;;;6.50;;
75456;SDS011;64036;48.266;14.192;2023-03-01T05:24:23;17.90;;;9.80;;
75456;SDS011;64036;48.266;14.192;2023-03-01T05:26:52;17.20;;;8.20;;
75456;SDS011;64036;48.266;14.192;2023-03-01T05:29:23;14.50;;;8.00;;
75456;SDS011;64036;48.266;14.192;2023-03-01T05:31:57;19.00;;;9.60;;
75456;SDS011;64036;48.266;14.192;2023-03-01T05:34:32;19.00;;;10.50;;
75456;SDS011;64036;48.266;14.192;2023-03-01T05:37:01;21.10;;;9.70;;
75456;SDS011;64036;48.266;14.192;2023-03-01T05:39:28;21.80;;;9.70;;
75456;SDS011;64036;48.266;14.192;2023-03-01T05:42:04;18.80;;;8.90;;
75456;SDS011;64036;48.266;14.192;2023-03-01T05:44:39;22.00;;;9.20;;
75456;SDS011;64036;48.266;14.192;2023-03-01T05:47:14;16.40;;;8.80;;
75456;SDS011;64036;48.266;14.192;2023-03-01T05:49:40;15.40;;;8.10;;
75456;SDS011;64036;48.266;14.192;2023-03-01T05:52:08;15.60;;;8.90;;
75456;SDS011;64036;48.266;14.192;2023-03-01T05:54:37;15.30;;;8.70;;
75456;SDS011;64036;48.266;14.192;2023-03-01T05:57:03;16.80;;;8.40;;
75456;SDS011;64036;48.266;14.192;2023-03-01T05:59:37;17.80;;;9.80;;
75456;SDS011;64036;48.266;14.192;2023-03-01T06:02:08;18.40;;;8.30;;
75456;SDS011;64036;48.266;14.192;2023-03-01T06:07:05;22.30;;;9.20;;
75456;SDS011;64036;48.266;14.192;2023-03-01T06:09:34;21.10;;;9.60;;
75456;SDS011;64036;48.266;14.192;2023-03-01T06:12:00;23.00;;;11.80;;
75456;SDS011;64036;48.266;14.192;2023-03-01T06:14:31;22.90;;;10.70;;
75456;SDS011;64036;48.266;14.192;2023-03-01T06:16:57;17.10;;;9.40;;
75456;SDS011;64036;48.266;14.192;2023-03-01T06:19:26;20.70;;;10.80;;
75456;SDS011;64036;48.266;14.192;2023-03-01T06:21:52;20.00;;;10.90;;
75456;SDS011;64036;48.266;14.192;2023-03-01T06:24:17;27.40;;;13.90;;
75456;SDS011;64036;48.266;14.192;2023-03-01T06:26:43;22.00;;;13.50;;
75456;SDS011;64036;48.266;14.192;2023-03-01T06:29:14;20.60;;;12.30;;
75456;SDS011;64036;48.266;14.192;2023-03-01T06:31:40;24.10;;;13.70;;
75456;SDS011;64036;48.266;14.192;2023-03-01T06:34:06;20.70;;;13.80;;
75456;SDS011;64036;48.266;14.192;2023-03-01T06:36:37;23.00;;;13.60;;
75456;SDS011;64036;48.266;14.192;2023-03-01T06:39:07;21.50;;;13.20;;
75456;SDS011;64036;48.266;14.192;2023-03-01T06:41:33;21.10;;;13.50;;
75456;SDS011;64036;48.266;14.192;2023-03-01T06:43:59;19.50;;;12.90;;
75456;SDS011;64036;48.266;14.192;2023-03-01T06:46:28;18.40;;;11.50;;
75456;SDS011;64036;48.266;14.192;2023-03-01T06:48:56;19.50;;;13.30;;
75456;SDS011;64036;48.266;14.192;2023-03-01T06:51:21;21.00;;;13.40;;
75456;SDS011;64036;48.266;14.192;2023-03-01T06:53:47;19.60;;;13.10;;
75456;SDS011;64036;48.266;14.192;2023-03-01T06:56:12;19.90;;;13.80;;
75456;SDS011;64036;48.266;14.192;2023-03-01T06:58:41;19.70;;;14.30;;
75456;SDS011;64036;48.266;14.192;2023-03-01T07:01:08;19.70;;;13.90;;
75456;SDS011;64036;48.266;14.192;2023-03-01T07:03:34;19.10;;;13.20;;
75456;SDS011;64036;48.266;14.192;2023-03-01T07:06:00;20.40;;;14.00;;
75456;SDS011;64036;48.266;14.192;2023-03-01T07:08:28;18.40;;;13.40;;
75456;SDS011;64036;48.266;14.192;2023-03-01T07:10:56;20.70;;;13.50;;
75456;SDS011;64036;48.266;14.192;2023-03-01T07:13:23;21.10;;;15.90;;
75456;SDS011;64036;48.266;14.192;2023-03-01T07:15:51;18.60;;;13.30;;
75456;SDS011;64036;48.266;14.192;2023-03-01T07:18:21;21.20;;;15.30;;
75456;SDS011;64036;48.266;14.192;2023-03-01T07:20:47;22.30;;;15.00;;
75456;SDS011;64036;48.266;14.192;2023-03-01T07:23:12;21.60;;;15.20;;
75456;SDS011;64036;48.266;14.192;2023-03-01T07:25:38;19.20;;;12.90;;
75456;SDS011;64036;48.266;14.192;2023-03-01T07:28:04;18.80;;;13.40;;
75456;SDS011;64036;48.266;14.192;2023-03-01T07:30:30;21.40;;;15.10;;
75456;SDS011;64036;48.266;14.192;2023-03-01T07:32:57;19.90;;;14.80;;
75456;SDS011;64036;48.266;14.192;2023-03-01T07:35:25;21.90;;;13.40;;
75456;SDS011;64036;48.266;14.192;2023-03-01T07:37:51;19.70;;;15.50;;
75456;SDS011;64036;48.266;14.192;2023-03-01T07:40:17;20.80;;;15.40;;
75456;SDS011;64036;48.266;14.192;2023-03-01T07:42:56;22.50;;;16.40;;
75456;SDS011;64036;48.266;14.192;2023-03-01T07:45:42;17.80;;;13.80;;
75456;SDS011;64036;48.266;14.192;2023-03-01T07:48:08;20.70;;;15.30;;
75456;SDS011;64036;48.266;14.192;2023-03-01T07:50:33;17.90;;;13.60;;
75456;SDS011;64036;48.266;14.192;2023-03-01T07:52:59;21.20;;;16.10;;
75456;SDS011;64036;48.266;14.192;2023-03-01T07:55:25;18.40;;;14.20;;
75456;SDS011;64036;48.266;14.192;2023-03-01T07:57:51;19.40;;;15.40;;
75456;SDS011;64036;48.266;14.192;2023-03-01T08:00:17;20.20;;;13.70;;
75456;SDS011;64036;48.266;14.192;2023-03-01T08:02:43;19.70;;;13.70;;
75456;SDS011;64036;48.266;14.192;2023-03-01T08:05:10;20.80;;;14.10;;
75456;SDS011;64036;48.266;14.192;2023-03-01T08:07:36;21.40;;;15.50;;
75456;SDS011;64036;48.266;14.192;2023-03-01T08:10:02;18.80;;;14.10;;
75456;SDS011;64036;48.266;14.192;2023-03-01T08:12:28;21.60;;;14.60;;
75456;SDS011;64036;48.266;14.192;2023-03-01T08:14:54;20.40;;;14.90;;
75456;SDS011;64036;48.266;14.192;2023-03-01T08:17:24;23.90;;;15.10;;
75456;SDS011;64036;48.266;14.192;2023-03-01T08:19:51;20.00;;;14.30;;
75456;SDS011;64036;48.266;14.192;2023-03-01T08:22:31;20.70;;;15.20;;
75456;SDS011;64036;48.266;14.192;2023-03-01T08:24:57;19.00;;;14.20;;
75456;SDS011;64036;48.266;14.192;2023-03-01T08:27:24;21.10;;;15.60;;
75456;SDS011;64036;48.266;14.192;2023-03-01T08:29:50;21.40;;;16.30;;
75456;SDS011;64036;48.266;14.192;2023-03-01T08:32:15;21.40;;;15.30;;
75456;SDS011;64036;48.266;14.192;2023-03-01T08:34:41;19.50;;;14.20;;
75456;SDS011;64036;48.266;14.192;2023-03-01T08:37:07;23.60;;;16.60;;
75456;SDS011;64036;48.266;14.192;2023-03-01T08:39:33;17.40;;;13.20;;
75456;SDS011;64036;48.266;14.192;2023-03-01T08:41:58;16.40;;;12.50;;
75456;SDS011;64036;48.266;14.192;2023-03-01T08:44:24;20.10;;;15.10;;
75456;SDS011;64036;48.266;14.192;2023-03-01T08:46:50;20.00;;;13.60;;
75456;SDS011;64036;48.266;14.192;2023-03-01T08:49:19;18.10;;;12.10;;
75456;SDS011;64036;48.266;14.192;2023-03-01T08:51:46;16.90;;;12.60;;
75456;SDS011;64036;48.266;14.192;2023-03-01T08:54:18;15.40;;;11.30;;
75456;SDS011;64036;48.266;14.192;2023-03-01T08:56:46;17.30;;;11.10;;
75456;SDS011;64036;48.266;14.192;2023-03-01T08:59:14;17.30;;;13.10;;
75456;SDS011;64036;48.266;14.192;2023-03-01T09:01:42;15.70;;;11.30;;
75456;SDS011;64036;48.266;14.192;2023-03-01T09:04:14;17.10;;;11.80;;
75456;SDS011;64036;48.266;14.192;2023-03-01T09:06:43;15.60;;;11.30;;
75456;SDS011;64036;48.266;14.192;2023-03-01T09:09:15;15.80;;;10.70;;
75456;SDS011;64036;48.266;14.192;2023-03-01T09:11:47;13.60;;;9.90;;
75456;SDS011;64036;48.266;14.192;2023-03-01T09:14:16;17.70;;;12.00;;
75456;SDS011;64036;48.266;14.192;2023-03-01T09:16:42;15.90;;;10.80;;
75456;SDS011;64036;48.266;14.192;2023-03-01T09:19:07;15.40;;;11.40;;
75456;SDS011;64036;48.266;14.192;2023-03-01T09:21:33;15.00;;;11.00;;
75456;SDS011;64036;48.266;14.192;2023-03-01T09:23:59;13.00;;;9.30;;
75456;SDS011;64036;48.266;14.192;2023-03-01T09:26:24;14.90;;;10.40;;
75456;SDS011;64036;48.266;14.192;2023-03-01T09:28:53;16.30;;;11.40;;
75456;SDS011;64036;48.266;14.192;2023-03-01T09:31:22;18.30;;;11.80;;
75456;SDS011;64036;48.266;14.192;2023-03-01T09:33:49;14.70;;;10.50;;
75456;SDS011;64036;48.266;14.192;2023-03-01T09:36:19;16.60;;;10.80;;
75456;SDS011;64036;48.266;14.192;2023-03-01T09:38:47;17.70;;;11.40;;
75456;SDS011;64036;48.266;14.192;2023-03-01T09:44:36;16.50;;;9.50;;
75456;SDS011;64036;48.266;14.192;2023-03-01T09:47:32;15.20;;;9.90;;
75456;SDS011;64036;48.266;14.192;2023-03-01T09:50:00;16.50;;;11.20;;
75456;SDS011;64036;48.266;14.192;2023-03-01T09:53:12;14.90;;;9.90;;
75456;SDS011;64036;48.266;14.192;2023-03-01T09:59:28;15.00;;;9.90;;
75456;SDS011;64036;48.266;14.192;2023-03-01T10:02:38;16.50;;;9.60;;
75456;SDS011;64036;48.266;14.192;2023-03-01T10:08:32;16.00;;;9.90;;
75456;SDS011;64036;48.266;14.192;2023-03-01T10:11:27;11.90;;;7.60;;
75456;SDS011;64036;48.266;14.192;2023-03-01T10:17:07;13.30;;;9.00;;
75456;SDS011;64036;48.266;14.192;2023-03-01T10:20:20;14.30;;;7.90;;
75456;SDS011;64036;48.266;14.192;2023-03-01T10:22:48;15.70;;;8.90;;
75456;SDS011;64036;48.266;14.192;2023-03-01T10:28:31;14.10;;;7.70;;
75456;SDS011;64036;48.266;14.192;2023-03-01T10:31:03;13.30;;;7.10;;
75456;SDS011;64036;48.266;14.192;2023-03-01T10:33:32;12.80;;;7.50;;
75456;SDS011;64036;48.266;14.192;2023-03-01T10:36:02;12.50;;;7.90;;
75456;SDS011;64036;48.266;14.192;2023-03-01T10:38:31;13.70;;;8.10;;
75456;SDS011;64036;48.266;14.192;2023-03-01T10:41:15;12.40;;;6.90;;
75456;SDS011;64036;48.266;14.192;2023-03-01T10:43:48;13.20;;;7.30;;
75456;SDS011;64036;48.266;14.192;2023-03-01T10:46:36;12.30;;;7.60;;
75456;SDS011;64036;48.266;14.192;2023-03-01T10:49:23;11.90;;;6.60;;
75456;SDS011;64036;48.266;14.192;2023-03-01T10:51:56;12.20;;;7.50;;
75456;SDS011;64036;48.266;14.192;2023-03-01T10:54:37;13.10;;;7.20;;
75456;SDS011;64036;48.266;14.192;2023-03-01T10:57:05;21.20;;;7.40;;
75456;SDS011;64036;48.266;14.192;2023-03-01T10:59:35;16.60;;;7.30;;
75456;SDS011;64036;48.266;14.192;2023-03-01T11:02:30;11.50;;;7.20;;
75456;SDS011;64036;48.266;14.192;2023-03-01T11:05:15;10.20;;;6.10;;
75456;SDS011;64036;48.266;14.192;2023-03-01T11:07:53;12.20;;;6.80;;
75456;SDS011;64036;48.266;14.192;2023-03-01T11:10:33;14.50;;;7.30;;
75456;SDS011;64036;48.266;14.192;2023-03-01T11:16:07;11.20;;;6.20;;
75456;SDS011;64036;48.266;14.192;2023-03-01T11:18:35;15.30;;;7.20;;
75456;SDS011;64036;48.266;14.192;2023-03-01T11:21:02;9.90;;;5.10;;
75456;SDS011;64036;48.266;14.192;2023-03-01T11:23:39;11.80;;;6.50;;
75456;SDS011;64036;48.266;14.192;2023-03-01T11:26:09;9.80;;;5.70;;
75456;SDS011;64036;48.266;14.192;2023-03-01T11:28:40;12.00;;;5.50;;
75456;SDS011;64036;48.266;14.192;2023-03-01T11:31:11;10.90;;;6.50;;
75456;SDS011;64036;48.266;14.192;2023-03-01T11:33:58;10.90;;;5.70;;
75456;SDS011;64036;48.266;14.192;2023-03-01T11:36:56;11.90;;;6.60;;
75456;SDS011;64036;48.266;14.192;2023-03-01T11:39:36;10.10;;;6.40;;
75456;SDS011;64036;48.266;14.192;2023-03-01T11:42:24;11.40;;;6.70;;
75456;SDS011;64036;48.266;14.192;2023-03-01T11:44:59;12.40;;;6.60;;
75456;SDS011;64036;48.266;14.192;2023-03-01T11:50:48;8.80;;;5.50;;
75456;SDS011;64036;48.266;14.192;2023-03-01T11:56:34;11.60;;;6.20;;
75456;SDS011;64036;48.266;14.192;2023-03-01T12:04:44;12.00;;;6.30;;
75456;SDS011;64036;48.266;14.192;2023-03-01T12:10:26;10.30;;;5.50;;
75456;SDS011;64036;48.266;14.192;2023-03-01T12:13:27;11.00;;;6.20;;
75456;SDS011;64036;48.266;14.192;2023-03-01T12:19:52;11.60;;;5.60;;
75456;SDS011;64036;48.266;14.192;2023-03-01T12:30:39;11.40;;;5.90;;
75456;SDS011;64036;48.266;14.192;2023-03-01T12:33:19;11.90;;;6.40;;
75456;SDS011;64036;48.266;14.192;2023-03-01T12:45:02;11.30;;;5.60;;
75456;SDS011;64036;48.266;14.192;2023-03-01T12:51:18;12.30;;;6.30;;
75456;SDS011;64036;48.266;14.192;2023-03-01T12:53:50;10.00;;;5.00;;
75456;SDS011;64036;48.266;14.192;2023-03-01T12:56:24;12.70;;;5.60;;
75456;SDS011;64036;48.266;14.192;2023-03-01T12:59:35;13.20;;;7.00;;
75456;SDS011;64036;48.266;14.192;2023-03-01T13:02:55;12.30;;;6.20;;
75456;SDS011;64036;48.266;14.192;2023-03-01T13:05:57;11.80;;;5.70;;
75456;SDS011;64036;48.266;14.192;2023-03-01T13:09:13;14.50;;;6.80;;
75456;SDS011;64036;48.266;14.192;2023-03-01T13:11:43;12.40;;;7.30;;
75456;SDS011;64036;48.266;14.192;2023-03-01T13:38:59;19.40;;;8.20;;
75456;SDS011;64036;48.266;14.192;2023-03-01T13:47:05;10.90;;;6.60;;
75456;SDS011;64036;48.266;14.192;2023-03-01T13:49:49;12.50;;;7.40;;
75456;SDS011;64036;48.266;14.192;2023-03-01T13:52:39;11.90;;;6.80;;
75456;SDS011;64036;48.266;14.192;2023-03-01T13:55:21;12.80;;;6.60;;
75456;SDS011;64036;48.266;14.192;2023-03-01T13:57:56;9.60;;;5.70;;
75456;SDS011;64036;48.266;14.192;2023-03-01T14:00:33;12.90;;;7.10;;
75456;SDS011;64036;48.266;14.192;2023-03-01T14:05:58;13.90;;;7.30;;
75456;SDS011;64036;48.266;14.192;2023-03-01T14:08:36;14.40;;;7.00;;
75456;SDS011;64036;48.266;14.192;2023-03-01T14:19:55;14.30;;;7.40;;
75456;SDS011;64036;48.266;14.192;2023-03-01T14:22:26;12.20;;;6.80;;
75456;SDS011;64036;48.266;14.192;2023-03-01T14:27:39;13.40;;;6.30;;
75456;SDS011;64036;48.266;14.192;2023-03-01T14:30:31;13.80;;;6.30;;
75456;SDS011;64036;48.266;14.192;2023-03-01T14:39:35;12.50;;;7.30;;
75456;SDS011;64036;48.266;14.192;2023-03-01T14:42:04;11.30;;;6.40;;
75456;SDS011;64036;48.266;14.192;2023-03-01T14:44:34;15.20;;;7.30;;
75456;SDS011;64036;48.266;14.192;2023-03-01T14:47:03;11.30;;;5.90;;
75456;SDS011;64036;48.266;14.192;2023-03-01T14:49:31;14.20;;;7.40;;
75456;SDS011;64036;48.266;14.192;2023-03-01T14:55:38;12.30;;;6.30;;
75456;SDS011;64036;48.266;14.192;2023-03-01T14:58:14;15.00;;;6.70;;
75456;SDS011;64036;48.266;14.192;2023-03-01T15:04:26;12.80;;;6.90;;
75456;SDS011;64036;48.266;14.192;2023-03-01T15:06:54;12.20;;;7.10;;
75456;SDS011;64036;48.266;14.192;2023-03-01T15:09:22;13.30;;;6.90;;
75456;SDS011;64036;48.266;14.192;2023-03-01T15:11:48;12.90;;;7.20;;
75456;SDS011;64036;48.266;14.192;2023-03-01T15:14:50;15.00;;;7.10;;
75456;SDS011;64036;48.266;14.192;2023-03-01T15:17:34;13.10;;;6.70;;
75456;SDS011;64036;48.266;14.192;2023-03-01T15:20:05;15.30;;;7.60;;
75456;SDS011;64036;48.266;14.192;2023-03-01T15:22:48;14.30;;;7.70;;
75456;SDS011;64036;48.266;14.192;2023-03-01T15:25:18;11.60;;;5.60;;
75456;SDS011;64036;48.266;14.192;2023-03-01T15:27:46;14.20;;;7.10;;
75456;SDS011;64036;48.266;14.192;2023-03-01T15:30:45;15.10;;;7.50;;
75456;SDS011;64036;48.266;14.192;2023-03-01T15:33:31;10.00;;;5.60;;
75456;SDS011;64036;48.266;14.192;2023-03-01T15:36:01;13.70;;;7.40;;
75456;SDS011;64036;48.266;14.192;2023-03-01T15:42:41;13.90;;;6.70;;
75456;SDS011;64036;48.266;14.192;2023-03-01T15:48:05;14.10;;;6.70;;
75456;SDS011;64036;48.266;14.192;2023-03-01T15:50:43;12.60;;;6.00;;
75456;SDS011;64036;48.266;14.192;2023-03-01T15:53:13;10.20;;;5.70;;
75456;SDS011;64036;48.266;14.192;2023-03-01T15:55:45;12.10;;;6.00;;
75456;SDS011;64036;48.266;14.192;2023-03-01T15:58:19;12.30;;;6.10;;
75456;SDS011;64036;48.266;14.192;2023-03-01T16:00:47;16.10;;;7.50;;
75456;SDS011;64036;48.266;14.192;2023-03-01T16:03:14;12.20;;;6.30;;
75456;SDS011;64036;48.266;14.192;2023-03-01T16:05:47;12.80;;;7.00;;
75456;SDS011;64036;48.266;14.192;2023-03-01T16:08:15;14.60;;;7.00;;
75456;SDS011;64036;48.266;14.192;2023-03-01T16:10:41;12.80;;;6.80;;
75456;SDS011;64036;48.266;14.192;2023-03-01T16:13:13;11.40;;;6.60;;
75456;SDS011;64036;48.266;14.192;2023-03-01T16:15:44;14.40;;;7.00;;
75456;SDS011;64036;48.266;14.192;2023-03-01T16:18:13;14.50;;;7.50;;
75456;SDS011;64036;48.266;14.192;2023-03-01T16:20:44;12.80;;;6.60;;
75456;SDS011;64036;48.266;14.192;2023-03-01T16:25:44;11.60;;;6.30;;
75456;SDS011;64036;48.266;14.192;2023-03-01T16:28:10;16.30;;;8.10;;
75456;SDS011;64036;48.266;14.192;2023-03-01T16:30:37;17.00;;;6.40;;
75456;SDS011;64036;48.266;14.192;2023-03-01T16:33:07;13.50;;;7.30;;
75456;SDS011;64036;48.266;14.192;2023-03-01T16:35:54;14.70;;;7.20;;
75456;SDS011;64036;48.266;14.192;2023-03-01T16:38:20;15.30;;;6.80;;
75456;SDS011;64036;48.266;14.192;2023-03-01T16:40:50;12.10;;;7.50;;
75456;SDS011;64036;48.266;14.192;2023-03-01T16:43:19;11.50;;;6.30;;
75456;SDS011;64036;48.266;14.192;2023-03-01T16:45:59;15.30;;;8.20;;
75456;SDS011;64036;48.266;14.192;2023-03-01T16:48:29;14.50;;;7.00;;
75456;SDS011;64036;48.266;14.192;2023-03-01T16:50:56;15.70;;;8.30;;
75456;SDS011;64036;48.266;14.192;2023-03-01T16:53:23;15.50;;;7.90;;
75456;SDS011;64036;48.266;14.192;2023-03-01T16:55:58;19.30;;;8.00;;
75456;SDS011;64036;48.266;14.192;2023-03-01T16:58:24;14.10;;;7.70;;
75456;SDS011;64036;48.266;14.192;2023-03-01T17:00:52;14.90;;;7.60;;
75456;SDS011;64036;48.266;14.192;2023-03-01T17:03:29;15.60;;;8.00;;
75456;SDS011;64036;48.266;14.192;2023-03-01T17:05:57;13.50;;;7.30;;
75456;SDS011;64036;48.266;14.192;2023-03-01T17:08:27;16.80;;;7.60;;
75456;SDS011;64036;48.266;14.192;2023-03-01T17:10:53;11.90;;;7.10;;
75456;SDS011;64036;48.266;14.192;2023-03-01T17:13:18;15.10;;;7.90;;
75456;SDS011;64036;48.266;14.192;2023-03-01T17:15:44;12.70;;;7.20;;